sensor_id;sensor_type;location;lat;lon;timestamp;temperature;humidity
20512;DHT22;10414;52.074;5.126;2023-03-22T00:00:36;10.30;99.90
20512;DHT22;10414;52.074;5.126;2023-03-22T00:03:04;10.30;99.90
20512;DHT22;10414;52.074;5.126;2023-03-22T00:05:32;10.20;99.90
20512;DHT22;10414;52.074;5.126;2023-03-22T00:08:00;10.20;99.90
20512;DHT22;10414;52.074;5.126;2023-03-22T00:10:30;10.30;99.90
20512;DHT22;10414;52.074;5.126;2023-03-22T00:12:57;10.20;99.90
20512;DHT22;10414;52.074;5.126;2023-03-22T00:15:24;10.20;99.90
20512;DHT22;10414;52.074;5.126;2023-03-22T00:17:54;10.20;99.90
20512;DHT22;10414;52.074;5.126;2023-03-22T00:20:21;10.20;99.90
20512;DHT22;10414;52.074;5.126;2023-03-22T00:22:50;10.20;99.90
20512;DHT22;10414;52.074;5.126;2023-03-22T00:25:17;10.20;99.90
20512;DHT22;10414;52.074;5.126;2023-03-22T00:27:44;10.20;99.90
20512;DHT22;10414;52.074;5.126;2023-03-22T00:30:11;10.20;99.90
20512;DHT22;10414;52.074;5.126;2023-03-22T00:32:39;10.20;99.90
20512;DHT22;10414;52.074;5.126;2023-03-22T00:35:08;10.10;99.90
20512;DHT22;10414;52.074;5.126;2023-03-22T00:37:35;10.10;99.90
20512;DHT22;10414;52.074;5.126;2023-03-22T00:40:06;10.00;99.90
20512;DHT22;10414;52.074;5.126;2023-03-22T00:42:34;10.00;99.90
20512;DHT22;10414;52.074;5.126;2023-03-22T00:45:01;10.00;99.90
20512;DHT22;10414;52.074;5.126;2023-03-22T00:47:29;9.90;99.90
20512;DHT22;10414;52.074;5.126;2023-03-22T00:49:56;10.00;99.90
20512;DHT22;10414;52.074;5.126;2023-03-22T00:52:23;10.00;99.90
20512;DHT22;10414;52.074;5.126;2023-03-22T00:54:49;10.00;99.90
20512;DHT22;10414;52.074;5.126;2023-03-22T00:57:18;10.00;99.90
20512;DHT22;10414;52.074;5.126;2023-03-22T00:59:45;10.00;99.90
20512;DHT22;10414;52.074;5.126;2023-03-22T01:02:12;10.00;99.90
20512;DHT22;10414;52.074;5.126;2023-03-22T01:04:39;9.90;99.90
20512;DHT22;10414;52.074;5.126;2023-03-22T01:07:10;9.90;99.90
20512;DHT22;10414;52.074;5.126;2023-03-22T01:09:42;10.10;99.90
20512;DHT22;10414;52.074;5.126;2023-03-22T01:12:09;10.20;99.90
20512;DHT22;10414;52.074;5.126;2023-03-22T01:14:38;10.10;99.90
20512;DHT22;10414;52.074;5.126;2023-03-22T01:17:05;10.00;99.90
20512;DHT22;10414;52.074;5.126;2023-03-22T01:19:32;10.00;99.90
20512;DHT22;10414;52.074;5.126;2023-03-22T01:22:00;10.00;99.90
20512;DHT22;10414;52.074;5.126;2023-03-22T01:24:27;10.00;99.90
20512;DHT22;10414;52.074;5.126;2023-03-22T01:26:54;10.00;99.90
20512;DHT22;10414;52.074;5.126;2023-03-22T01:29:21;10.20;99.90
20512;DHT22;10414;52.074;5.126;2023-03-22T01:31:49;10.10;99.90
20512;DHT22;10414;52.074;5.126;2023-03-22T01:34:16;10.10;99.90
20512;DHT22;10414;52.074;5.126;2023-03-22T01:36:43;10.20;99.90
20512;DHT22;10414;52.074;5.126;2023-03-22T01:39:10;10.10;99.90
20512;DHT22;10414;52.074;5.126;2023-03-22T01:41:37;10.20;99.90
20512;DHT22;10414;52.074;5.126;2023-03-22T01:44:09;10.20;99.90
20512;DHT22;10414;52.074;5.126;2023-03-22T01:46:36;10.20;99.90
20512;DHT22;10414;52.074;5.126;2023-03-22T01:49:07;10.30;99.90
20512;DHT22;10414;52.074;5.126;2023-03-22T01:51:36;10.40;99.90
20512;DHT22;10414;52.074;5.126;2023-03-22T01:54:06;10.40;99.90
20512;DHT22;10414;52.074;5.126;2023-03-22T01:56:36;10.40;99.90
20512;DHT22;10414;52.074;5.126;2023-03-22T01:59:05;10.40;99.90
20512;DHT22;10414;52.074;5.126;2023-03-22T02:01:34;10.40;99.90
20512;DHT22;10414;52.074;5.126;2023-03-22T02:04:05;10.40;99.90
20512;DHT22;10414;52.074;5.126;2023-03-22T02:06:34;10.40;99.90
20512;DHT22;10414;52.074;5.126;2023-03-22T02:09:03;10.50;99.90
20512;DHT22;10414;52.074;5.126;2023-03-22T02:11:32;10.50;99.90
20512;DHT22;10414;52.074;5.126;2023-03-22T02:17:18;10.50;99.90
20512;DHT22;10414;52.074;5.126;2023-03-22T02:20:06;10.50;99.90
20512;DHT22;10414;52.074;5.126;2023-03-22T02:25:45;10.40;99.90
20512;DHT22;10414;52.074;5.126;2023-03-22T02:28:21;10.30;99.90
20512;DHT22;10414;52.074;5.126;2023-03-22T02:33:53;10.30;99.90
20512;DHT22;10414;52.074;5.126;2023-03-22T02:36:46;10.30;99.90
20512;DHT22;10414;52.074;5.126;2023-03-22T02:39:28;10.20;99.90
20512;DHT22;10414;52.074;5.126;2023-03-22T02:42:05;10.20;99.90
20512;DHT22;10414;52.074;5.126;2023-03-22T02:44:40;10.30;99.90
20512;DHT22;10414;52.074;5.126;2023-03-22T02:47:12;10.30;99.90
20512;DHT22;10414;52.074;5.126;2023-03-22T02:49:47;10.30;99.90
20512;DHT22;10414;52.074;5.126;2023-03-22T02:52:21;10.40;99.90
20512;DHT22;10414;52.074;5.126;2023-03-22T02:54:54;10.50;99.90
20512;DHT22;10414;52.074;5.126;2023-03-22T02:57:28;10.40;99.90
20512;DHT22;10414;52.074;5.126;2023-03-22T03:00:00;10.50;99.90
20512;DHT22;10414;52.074;5.126;2023-03-22T03:02:33;10.50;99.90
20512;DHT22;10414;52.074;5.126;2023-03-22T03:05:01;10.50;99.90
20512;DHT22;10414;52.074;5.126;2023-03-22T03:07:29;10.60;99.90
20512;DHT22;10414;52.074;5.126;2023-03-22T03:09:58;10.60;99.90
20512;DHT22;10414;52.074;5.126;2023-03-22T03:12:26;10.60;99.90
20512;DHT22;10414;52.074;5.126;2023-03-22T03:14:54;10.50;99.90
20512;DHT22;10414;52.074;5.126;2023-03-22T03:17:34;10.60;99.90
20512;DHT22;10414;52.074;5.126;2023-03-22T03:20:14;10.50;99.90
20512;DHT22;10414;52.074;5.126;2023-03-22T03:22:49;10.60;99.90
20512;DHT22;10414;52.074;5.126;2023-03-22T03:25:25;10.50;99.90
20512;DHT22;10414;52.074;5.126;2023-03-22T03:28:00;10.50;99.90
20512;DHT22;10414;52.074;5.126;2023-03-22T03:30:32;10.60;99.90
20512;DHT22;10414;52.074;5.126;2023-03-22T03:33:03;10.50;99.90
20512;DHT22;10414;52.074;5.126;2023-03-22T03:35:37;10.60;99.90
20512;DHT22;10414;52.074;5.126;2023-03-22T03:38:09;10.50;99.90
20512;DHT22;10414;52.074;5.126;2023-03-22T03:40:40;10.60;99.90
20512;DHT22;10414;52.074;5.126;2023-03-22T03:43:09;10.60;99.90
20512;DHT22;10414;52.074;5.126;2023-03-22T03:45:37;10.50;99.90
20512;DHT22;10414;52.074;5.126;2023-03-22T03:48:07;10.50;99.90
20512;DHT22;10414;52.074;5.126;2023-03-22T03:50:35;10.50;99.90
20512;DHT22;10414;52.074;5.126;2023-03-22T03:53:03;10.60;99.90
20512;DHT22;10414;52.074;5.126;2023-03-22T03:55:30;10.60;99.90
20512;DHT22;10414;52.074;5.126;2023-03-22T03:57:59;10.60;99.90
20512;DHT22;10414;52.074;5.126;2023-03-22T04:00:26;10.50;99.90
20512;DHT22;10414;52.074;5.126;2023-03-22T04:02:52;10.50;99.90
20512;DHT22;10414;52.074;5.126;2023-03-22T04:05:20;10.60;99.90
20512;DHT22;10414;52.074;5.126;2023-03-22T04:07:47;10.50;99.90
20512;DHT22;10414;52.074;5.126;2023-03-22T04:10:14;10.50;99.90
20512;DHT22;10414;52.074;5.126;2023-03-22T04:12:41;10.70;99.90
20512;DHT22;10414;52.074;5.126;2023-03-22T04:15:10;10.60;99.90
20512;DHT22;10414;52.074;5.126;2023-03-22T04:17:37;10.60;99.90
20512;DHT22;10414;52.074;5.126;2023-03-22T04:20:06;10.60;99.90
20512;DHT22;10414;52.074;5.126;2023-03-22T04:22:35;10.70;99.90
20512;DHT22;10414;52.074;5.126;2023-03-22T04:25:03;10.60;99.90
20512;DHT22;10414;52.074;5.126;2023-03-22T04:27:30;10.60;99.90
20512;DHT22;10414;52.074;5.126;2023-03-22T04:29:57;10.60;99.90
20512;DHT22;10414;52.074;5.126;2023-03-22T04:32:26;10.60;99.90
20512;DHT22;10414;52.074;5.126;2023-03-22T04:34:53;10.60;99.90
20512;DHT22;10414;52.074;5.126;2023-03-22T04:37:21;10.60;99.90
20512;DHT22;10414;52.074;5.126;2023-03-22T04:39:49;10.60;99.90
20512;DHT22;10414;52.074;5.126;2023-03-22T04:42:16;10.70;99.90
20512;DHT22;10414;52.074;5.126;2023-03-22T04:44:42;10.60;99.90
20512;DHT22;10414;52.074;5.126;2023-03-22T04:47:10;10.70;99.90
20512;DHT22;10414;52.074;5.126;2023-03-22T04:49:38;10.70;99.90
20512;DHT22;10414;52.074;5.126;2023-03-22T04:52:05;10.70;99.90
20512;DHT22;10414;52.074;5.126;2023-03-22T04:54:32;10.70;99.90
20512;DHT22;10414;52.074;5.126;2023-03-22T04:56:59;10.70;99.90
20512;DHT22;10414;52.074;5.126;2023-03-22T04:59:26;10.60;99.90
20512;DHT22;10414;52.074;5.126;2023-03-22T05:01:53;10.60;99.90
20512;DHT22;10414;52.074;5.126;2023-03-22T05:04:21;10.60;99.90
20512;DHT22;10414;52.074;5.126;2023-03-22T05:06:49;10.60;99.90
20512;DHT22;10414;52.074;5.126;2023-03-22T05:09:16;10.60;99.90
20512;DHT22;10414;52.074;5.126;2023-03-22T05:11:43;10.50;99.90
20512;DHT22;10414;52.074;5.126;2023-03-22T05:14:10;10.40;99.90
20512;DHT22;10414;52.074;5.126;2023-03-22T05:16:37;10.40;99.90
20512;DHT22;10414;52.074;5.126;2023-03-22T05:19:05;10.40;99.90
20512;DHT22;10414;52.074;5.126;2023-03-22T05:21:38;10.40;99.90
20512;DHT22;10414;52.074;5.126;2023-03-22T05:24:07;10.40;99.90
20512;DHT22;10414;52.074;5.126;2023-03-22T05:26:34;10.30;99.90
20512;DHT22;10414;52.074;5.126;2023-03-22T05:29:03;10.40;99.90
20512;DHT22;10414;52.074;5.126;2023-03-22T05:31:31;10.30;99.90
20512;DHT22;10414;52.074;5.126;2023-03-22T05:33:59;10.30;99.90
20512;DHT22;10414;52.074;5.126;2023-03-22T05:36:27;10.30;99.90
20512;DHT22;10414;52.074;5.126;2023-03-22T05:38:55;10.30;99.90
20512;DHT22;10414;52.074;5.126;2023-03-22T05:41:23;10.20;99.90
20512;DHT22;10414;52.074;5.126;2023-03-22T05:43:50;10.30;99.90
20512;DHT22;10414;52.074;5.126;2023-03-22T05:46:17;10.30;99.90
20512;DHT22;10414;52.074;5.126;2023-03-22T05:48:43;10.30;99.90
20512;DHT22;10414;52.074;5.126;2023-03-22T05:51:12;10.30;99.90
20512;DHT22;10414;52.074;5.126;2023-03-22T05:53:42;10.40;99.90
20512;DHT22;10414;52.074;5.126;2023-03-22T05:56:09;10.50;99.90
20512;DHT22;10414;52.074;5.126;2023-03-22T05:58:37;10.40;99.90
20512;DHT22;10414;52.074;5.126;2023-03-22T06:01:07;10.40;99.90
20512;DHT22;10414;52.074;5.126;2023-03-22T06:03:35;10.50;99.90
20512;DHT22;10414;52.074;5.126;2023-03-22T06:06:02;10.40;99.90
20512;DHT22;10414;52.074;5.126;2023-03-22T06:08:31;10.40;99.90
20512;DHT22;10414;52.074;5.126;2023-03-22T06:10:58;10.40;99.90
20512;DHT22;10414;52.074;5.126;2023-03-22T06:13:25;10.40;99.90
20512;DHT22;10414;52.074;5.126;2023-03-22T06:15:54;10.40;99.90
20512;DHT22;10414;52.074;5.126;2023-03-22T06:18:20;10.50;99.90
20512;DHT22;10414;52.074;5.126;2023-03-22T06:20:47;10.60;99.90
20512;DHT22;10414;52.074;5.126;2023-03-22T06:23:14;10.70;99.90
20512;DHT22;10414;52.074;5.126;2023-03-22T06:25:41;10.90;99.90
20512;DHT22;10414;52.074;5.126;2023-03-22T06:28:08;10.90;99.90
20512;DHT22;10414;52.074;5.126;2023-03-22T06:30:35;11.10;99.90
20512;DHT22;10414;52.074;5.126;2023-03-22T06:33:03;11.10;99.90
20512;DHT22;10414;52.074;5.126;2023-03-22T06:35:31;11.10;99.90
20512;DHT22;10414;52.074;5.126;2023-03-22T06:37:58;11.10;99.90
20512;DHT22;10414;52.074;5.126;2023-03-22T06:40:25;11.10;99.90
20512;DHT22;10414;52.074;5.126;2023-03-22T06:42:52;11.30;99.90
20512;DHT22;10414;52.074;5.126;2023-03-22T06:45:19;11.30;99.90
20512;DHT22;10414;52.074;5.126;2023-03-22T06:47:46;11.40;99.90
20512;DHT22;10414;52.074;5.126;2023-03-22T06:50:14;11.50;99.90
20512;DHT22;10414;52.074;5.126;2023-03-22T06:52:41;11.60;99.90
20512;DHT22;10414;52.074;5.126;2023-03-22T06:55:08;11.70;99.90
20512;DHT22;10414;52.074;5.126;2023-03-22T06:57:35;11.80;99.90
20512;DHT22;10414;52.074;5.126;2023-03-22T07:00:02;11.70;99.90
20512;DHT22;10414;52.074;5.126;2023-03-22T07:02:30;11.40;99.90
20512;DHT22;10414;52.074;5.126;2023-03-22T07:04:57;11.50;99.90
20512;DHT22;10414;52.074;5.126;2023-03-22T07:07:25;11.40;99.90
20512;DHT22;10414;52.074;5.126;2023-03-22T07:09:52;11.40;99.90
20512;DHT22;10414;52.074;5.126;2023-03-22T07:12:18;11.30;99.90
20512;DHT22;10414;52.074;5.126;2023-03-22T07:14:45;11.30;99.90
20512;DHT22;10414;52.074;5.126;2023-03-22T07:17:12;11.30;99.90
20512;DHT22;10414;52.074;5.126;2023-03-22T07:19:40;11.40;99.90
20512;DHT22;10414;52.074;5.126;2023-03-22T07:22:07;11.40;99.90
20512;DHT22;10414;52.074;5.126;2023-03-22T07:24:35;11.40;99.90
20512;DHT22;10414;52.074;5.126;2023-03-22T07:27:02;11.40;99.90
20512;DHT22;10414;52.074;5.126;2023-03-22T07:29:29;11.40;99.90
20512;DHT22;10414;52.074;5.126;2023-03-22T07:31:56;11.60;99.90
20512;DHT22;10414;52.074;5.126;2023-03-22T07:34:23;11.70;99.90
20512;DHT22;10414;52.074;5.126;2023-03-22T07:36:51;11.80;99.90
20512;DHT22;10414;52.074;5.126;2023-03-22T07:39:17;12.10;99.90
20512;DHT22;10414;52.074;5.126;2023-03-22T07:41:46;12.30;99.90
20512;DHT22;10414;52.074;5.126;2023-03-22T07:44:12;12.90;99.90
20512;DHT22;10414;52.074;5.126;2023-03-22T07:46:39;13.80;99.90
20512;DHT22;10414;52.074;5.126;2023-03-22T07:49:06;14.10;99.90
20512;DHT22;10414;52.074;5.126;2023-03-22T07:51:33;13.80;99.90
20512;DHT22;10414;52.074;5.126;2023-03-22T07:54:00;13.80;99.90
20512;DHT22;10414;52.074;5.126;2023-03-22T07:56:27;13.30;99.90
20512;DHT22;10414;52.074;5.126;2023-03-22T07:58:55;12.80;99.90
20512;DHT22;10414;52.074;5.126;2023-03-22T08:01:22;12.70;99.90
20512;DHT22;10414;52.074;5.126;2023-03-22T08:03:49;13.00;99.90
20512;DHT22;10414;52.074;5.126;2023-03-22T08:06:16;13.20;99.90
20512;DHT22;10414;52.074;5.126;2023-03-22T08:08:44;12.90;99.90
20512;DHT22;10414;52.074;5.126;2023-03-22T08:11:11;13.00;99.90
20512;DHT22;10414;52.074;5.126;2023-03-22T08:13:38;13.50;99.90
20512;DHT22;10414;52.074;5.126;2023-03-22T08:16:06;13.40;99.90
20512;DHT22;10414;52.074;5.126;2023-03-22T08:18:33;13.10;99.90
20512;DHT22;10414;52.074;5.126;2023-03-22T08:21:00;12.90;99.90
20512;DHT22;10414;52.074;5.126;2023-03-22T08:23:27;12.70;99.90
20512;DHT22;10414;52.074;5.126;2023-03-22T08:25:54;12.50;99.90
20512;DHT22;10414;52.074;5.126;2023-03-22T08:28:21;12.60;99.90
20512;DHT22;10414;52.074;5.126;2023-03-22T08:30:48;12.70;99.90
20512;DHT22;10414;52.074;5.126;2023-03-22T08:33:16;12.80;99.90
20512;DHT22;10414;52.074;5.126;2023-03-22T08:35:45;12.80;99.90
20512;DHT22;10414;52.074;5.126;2023-03-22T08:38:12;12.80;99.90
20512;DHT22;10414;52.074;5.126;2023-03-22T08:40:39;12.70;99.90
20512;DHT22;10414;52.074;5.126;2023-03-22T08:43:06;12.60;99.90
20512;DHT22;10414;52.074;5.126;2023-03-22T08:45:33;12.60;99.90
20512;DHT22;10414;52.074;5.126;2023-03-22T08:48:00;12.60;99.90
20512;DHT22;10414;52.074;5.126;2023-03-22T08:50:28;12.40;99.90
20512;DHT22;10414;52.074;5.126;2023-03-22T08:52:58;12.40;99.90
20512;DHT22;10414;52.074;5.126;2023-03-22T08:55:25;12.30;99.90
20512;DHT22;10414;52.074;5.126;2023-03-22T08:57:52;12.30;99.90
20512;DHT22;10414;52.074;5.126;2023-03-22T09:00:22;12.30;99.90
20512;DHT22;10414;52.074;5.126;2023-03-22T09:02:49;12.30;99.90
20512;DHT22;10414;52.074;5.126;2023-03-22T09:05:16;12.10;99.90
20512;DHT22;10414;52.074;5.126;2023-03-22T09:07:45;12.10;99.90
20512;DHT22;10414;52.074;5.126;2023-03-22T09:10:11;12.00;99.90
20512;DHT22;10414;52.074;5.126;2023-03-22T09:12:38;11.80;99.90
20512;DHT22;10414;52.074;5.126;2023-03-22T09:15:06;11.80;99.90
20512;DHT22;10414;52.074;5.126;2023-03-22T09:17:33;11.70;99.90
20512;DHT22;10414;52.074;5.126;2023-03-22T09:20:01;11.70;99.90
20512;DHT22;10414;52.074;5.126;2023-03-22T09:22:28;11.60;99.90
20512;DHT22;10414;52.074;5.126;2023-03-22T09:24:56;11.60;99.90
20512;DHT22;10414;52.074;5.126;2023-03-22T09:27:23;11.40;99.90
20512;DHT22;10414;52.074;5.126;2023-03-22T09:29:51;11.40;99.90
20512;DHT22;10414;52.074;5.126;2023-03-22T09:32:18;11.50;99.90
20512;DHT22;10414;52.074;5.126;2023-03-22T09:34:44;11.50;99.90
20512;DHT22;10414;52.074;5.126;2023-03-22T09:37:11;11.40;99.90
20512;DHT22;10414;52.074;5.126;2023-03-22T09:39:39;11.50;99.90
20512;DHT22;10414;52.074;5.126;2023-03-22T09:42:24;11.50;99.90
20512;DHT22;10414;52.074;5.126;2023-03-22T09:44:54;11.50;99.90
20512;DHT22;10414;52.074;5.126;2023-03-22T09:47:31;11.40;99.90
20512;DHT22;10414;52.074;5.126;2023-03-22T09:50:04;11.40;99.90
20512;DHT22;10414;52.074;5.126;2023-03-22T09:52:31;11.30;99.90
20512;DHT22;10414;52.074;5.126;2023-03-22T09:54:58;11.30;99.90
20512;DHT22;10414;52.074;5.126;2023-03-22T09:57:31;11.20;99.90
20512;DHT22;10414;52.074;5.126;2023-03-22T10:00:04;11.30;99.90
20512;DHT22;10414;52.074;5.126;2023-03-22T10:02:52;11.30;99.90
20512;DHT22;10414;52.074;5.126;2023-03-22T10:05:27;11.40;99.90
20512;DHT22;10414;52.074;5.126;2023-03-22T10:08:17;11.40;99.90
20512;DHT22;10414;52.074;5.126;2023-03-22T10:10:47;11.50;99.90
20512;DHT22;10414;52.074;5.126;2023-03-22T10:13:22;11.40;99.90
20512;DHT22;10414;52.074;5.126;2023-03-22T10:15:52;11.30;99.90
20512;DHT22;10414;52.074;5.126;2023-03-22T10:18:21;11.40;99.90
20512;DHT22;10414;52.074;5.126;2023-03-22T10:20:54;11.30;99.90
20512;DHT22;10414;52.074;5.126;2023-03-22T10:23:27;11.30;99.90
20512;DHT22;10414;52.074;5.126;2023-03-22T10:25:56;11.50;99.90
20512;DHT22;10414;52.074;5.126;2023-03-22T10:28:30;11.60;99.90
20512;DHT22;10414;52.074;5.126;2023-03-22T10:30:58;11.50;99.90
20512;DHT22;10414;52.074;5.126;2023-03-22T10:33:32;11.50;99.90
20512;DHT22;10414;52.074;5.126;2023-03-22T10:36:01;11.50;99.90
20512;DHT22;10414;52.074;5.126;2023-03-22T10:38:29;11.50;99.90
20512;DHT22;10414;52.074;5.126;2023-03-22T10:40:58;11.50;99.90
20512;DHT22;10414;52.074;5.126;2023-03-22T10:43:30;11.50;99.90
20512;DHT22;10414;52.074;5.126;2023-03-22T10:46:00;11.60;99.90
20512;DHT22;10414;52.074;5.126;2023-03-22T10:48:30;11.50;99.90
20512;DHT22;10414;52.074;5.126;2023-03-22T10:50:58;11.60;99.90
20512;DHT22;10414;52.074;5.126;2023-03-22T10:53:31;11.70;99.90
20512;DHT22;10414;52.074;5.126;2023-03-22T10:56:00;11.70;99.90
20512;DHT22;10414;52.074;5.126;2023-03-22T10:58:30;11.90;99.90
20512;DHT22;10414;52.074;5.126;2023-03-22T11:00:59;11.90;99.90
20512;DHT22;10414;52.074;5.126;2023-03-22T11:03:30;11.90;99.90
20512;DHT22;10414;52.074;5.126;2023-03-22T11:06:02;12.00;99.90
20512;DHT22;10414;52.074;5.126;2023-03-22T11:08:38;12.20;99.90
20512;DHT22;10414;52.074;5.126;2023-03-22T11:11:06;12.10;99.90
20512;DHT22;10414;52.074;5.126;2023-03-22T11:13:34;12.00;99.90
20512;DHT22;10414;52.074;5.126;2023-03-22T11:16:02;12.00;99.90
20512;DHT22;10414;52.074;5.126;2023-03-22T11:18:30;12.10;99.90
20512;DHT22;10414;52.074;5.126;2023-03-22T11:21:00;11.90;99.90
20512;DHT22;10414;52.074;5.126;2023-03-22T11:23:31;12.00;99.90
20512;DHT22;10414;52.074;5.126;2023-03-22T11:26:04;12.10;99.90
20512;DHT22;10414;52.074;5.126;2023-03-22T11:28:36;12.20;99.90
20512;DHT22;10414;52.074;5.126;2023-03-22T11:31:07;12.40;99.90
20512;DHT22;10414;52.074;5.126;2023-03-22T11:33:36;12.20;99.90
20512;DHT22;10414;52.074;5.126;2023-03-22T11:36:13;12.30;99.90
20512;DHT22;10414;52.074;5.126;2023-03-22T11:38:41;12.40;99.90
20512;DHT22;10414;52.074;5.126;2023-03-22T11:41:16;12.20;99.90
20512;DHT22;10414;52.074;5.126;2023-03-22T11:43:49;12.20;99.90
20512;DHT22;10414;52.074;5.126;2023-03-22T11:46:17;12.10;99.90
20512;DHT22;10414;52.074;5.126;2023-03-22T11:48:45;12.20;99.90
20512;DHT22;10414;52.074;5.126;2023-03-22T11:51:15;12.10;99.90
20512;DHT22;10414;52.074;5.126;2023-03-22T11:53:44;12.20;99.90
20512;DHT22;10414;52.074;5.126;2023-03-22T11:56:16;12.20;99.90
20512;DHT22;10414;52.074;5.126;2023-03-22T11:58:52;12.20;99.90
20512;DHT22;10414;52.074;5.126;2023-03-22T12:01:30;12.20;99.90
20512;DHT22;10414;52.074;5.126;2023-03-22T12:04:00;12.10;99.90
20512;DHT22;10414;52.074;5.126;2023-03-22T12:06:32;12.00;99.90
20512;DHT22;10414;52.074;5.126;2023-03-22T12:09:03;12.00;99.90
20512;DHT22;10414;52.074;5.126;2023-03-22T12:11:33;12.00;99.90
20512;DHT22;10414;52.074;5.126;2023-03-22T12:14:07;12.20;99.90
20512;DHT22;10414;52.074;5.126;2023-03-22T12:16:43;12.10;99.90
20512;DHT22;10414;52.074;5.126;2023-03-22T12:19:19;12.10;99.90
20512;DHT22;10414;52.074;5.126;2023-03-22T12:21:49;12.10;99.90
20512;DHT22;10414;52.074;5.126;2023-03-22T12:24:25;12.10;99.90
20512;DHT22;10414;52.074;5.126;2023-03-22T12:26:55;12.00;99.90
20512;DHT22;10414;52.074;5.126;2023-03-22T12:29:26;12.00;99.90
20512;DHT22;10414;52.074;5.126;2023-03-22T12:31:59;12.00;99.90
20512;DHT22;10414;52.074;5.126;2023-03-22T12:34:34;12.10;99.90
20512;DHT22;10414;52.074;5.126;2023-03-22T12:37:04;12.10;99.90
20512;DHT22;10414;52.074;5.126;2023-03-22T12:39:37;12.00;99.90
20512;DHT22;10414;52.074;5.126;2023-03-22T12:42:11;12.00;99.90
20512;DHT22;10414;52.074;5.126;2023-03-22T12:44:43;12.10;99.90
20512;DHT22;10414;52.074;5.126;2023-03-22T12:47:16;12.10;99.90
20512;DHT22;10414;52.074;5.126;2023-03-22T12:49:50;12.20;99.90
20512;DHT22;10414;52.074;5.126;2023-03-22T12:52:22;12.30;99.90
20512;DHT22;10414;52.074;5.126;2023-03-22T12:54:51;12.20;99.90
20512;DHT22;10414;52.074;5.126;2023-03-22T12:57:19;12.10;99.90
20512;DHT22;10414;52.074;5.126;2023-03-22T12:59:50;12.10;99.90
20512;DHT22;10414;52.074;5.126;2023-03-22T13:02:23;12.10;99.90
20512;DHT22;10414;52.074;5.126;2023-03-22T13:04:53;12.10;99.90
20512;DHT22;10414;52.074;5.126;2023-03-22T13:07:35;12.20;99.90
20512;DHT22;10414;52.074;5.126;2023-03-22T13:13:41;12.30;99.90
20512;DHT22;10414;52.074;5.126;2023-03-22T13:16:18;12.30;99.90
20512;DHT22;10414;52.074;5.126;2023-03-22T13:19:01;12.30;99.90
20512;DHT22;10414;52.074;5.126;2023-03-22T13:21:30;12.40;99.90
20512;DHT22;10414;52.074;5.126;2023-03-22T13:24:00;12.40;99.90
20512;DHT22;10414;52.074;5.126;2023-03-22T13:26:45;12.40;99.90
20512;DHT22;10414;52.074;5.126;2023-03-22T13:29:16;12.50;99.90
20512;DHT22;10414;52.074;5.126;2023-03-22T13:31:52;12.40;99.90
20512;DHT22;10414;52.074;5.126;2023-03-22T13:34:28;12.40;99.90
20512;DHT22;10414;52.074;5.126;2023-03-22T13:36:56;12.60;99.90
20512;DHT22;10414;52.074;5.126;2023-03-22T13:39:31;12.60;99.90
20512;DHT22;10414;52.074;5.126;2023-03-22T13:42:04;12.70;99.90
20512;DHT22;10414;52.074;5.126;2023-03-22T13:44:35;12.60;99.90
20512;DHT22;10414;52.074;5.126;2023-03-22T13:47:07;12.70;99.90
20512;DHT22;10414;52.074;5.126;2023-03-22T13:49:44;12.80;99.90
20512;DHT22;10414;52.074;5.126;2023-03-22T13:52:23;12.70;99.90
20512;DHT22;10414;52.074;5.126;2023-03-22T13:54:52;12.60;99.90
20512;DHT22;10414;52.074;5.126;2023-03-22T13:57:39;12.50;99.90
20512;DHT22;10414;52.074;5.126;2023-03-22T14:00:36;12.60;99.90
20512;DHT22;10414;52.074;5.126;2023-03-22T14:03:12;12.70;99.90
20512;DHT22;10414;52.074;5.126;2023-03-22T14:05:41;12.60;99.90
20512;DHT22;10414;52.074;5.126;2023-03-22T14:08:14;12.70;99.90
20512;DHT22;10414;52.074;5.126;2023-03-22T14:10:46;12.60;99.90
20512;DHT22;10414;52.074;5.126;2023-03-22T14:13:18;12.70;99.90
20512;DHT22;10414;52.074;5.126;2023-03-22T14:15:50;12.60;99.90
20512;DHT22;10414;52.074;5.126;2023-03-22T14:18:22;12.70;99.90
20512;DHT22;10414;52.074;5.126;2023-03-22T14:20:53;12.80;99.90
20512;DHT22;10414;52.074;5.126;2023-03-22T14:23:24;12.90;99.90
20512;DHT22;10414;52.074;5.126;2023-03-22T14:25:54;12.90;99.90
20512;DHT22;10414;52.074;5.126;2023-03-22T14:28:30;12.80;99.90
20512;DHT22;10414;52.074;5.126;2023-03-22T14:30:57;13.00;99.90
20512;DHT22;10414;52.074;5.126;2023-03-22T14:33:26;13.00;99.90
20512;DHT22;10414;52.074;5.126;2023-03-22T14:35:56;12.80;99.90
20512;DHT22;10414;52.074;5.126;2023-03-22T14:38:28;12.80;99.90
20512;DHT22;10414;52.074;5.126;2023-03-22T14:41:06;12.90;99.90
20512;DHT22;10414;52.074;5.126;2023-03-22T14:43:33;12.70;99.90
20512;DHT22;10414;52.074;5.126;2023-03-22T14:46:03;12.70;99.90
20512;DHT22;10414;52.074;5.126;2023-03-22T14:48:33;12.60;99.90
20512;DHT22;10414;52.074;5.126;2023-03-22T14:51:03;12.70;99.90
20512;DHT22;10414;52.074;5.126;2023-03-22T14:53:35;12.70;99.90
20512;DHT22;10414;52.074;5.126;2023-03-22T14:56:04;12.70;99.90
20512;DHT22;10414;52.074;5.126;2023-03-22T14:58:33;12.70;99.90
20512;DHT22;10414;52.074;5.126;2023-03-22T15:01:01;12.60;99.90
20512;DHT22;10414;52.074;5.126;2023-03-22T15:03:28;12.60;99.90
20512;DHT22;10414;52.074;5.126;2023-03-22T15:05:58;12.50;99.90
20512;DHT22;10414;52.074;5.126;2023-03-22T15:08:30;12.40;99.90
20512;DHT22;10414;52.074;5.126;2023-03-22T15:10:59;12.40;99.90
20512;DHT22;10414;52.074;5.126;2023-03-22T15:13:28;12.40;99.90
20512;DHT22;10414;52.074;5.126;2023-03-22T15:15:56;12.40;99.90
20512;DHT22;10414;52.074;5.126;2023-03-22T15:18:25;12.50;99.90
20512;DHT22;10414;52.074;5.126;2023-03-22T15:20:54;12.40;99.90
20512;DHT22;10414;52.074;5.126;2023-03-22T15:23:31;12.40;99.90
20512;DHT22;10414;52.074;5.126;2023-03-22T15:25:59;12.60;99.90
20512;DHT22;10414;52.074;5.126;2023-03-22T15:28:27;12.60;99.90
20512;DHT22;10414;52.074;5.126;2023-03-22T15:30:56;12.50;99.90
20512;DHT22;10414;52.074;5.126;2023-03-22T15:33:31;12.50;99.90
20512;DHT22;10414;52.074;5.126;2023-03-22T15:35:59;12.50;99.90
20512;DHT22;10414;52.074;5.126;2023-03-22T15:38:30;12.40;99.90
20512;DHT22;10414;52.074;5.126;2023-03-22T15:41:02;12.40;99.90
20512;DHT22;10414;52.074;5.126;2023-03-22T15:43:33;12.60;99.90
20512;DHT22;10414;52.074;5.126;2023-03-22T15:46:20;12.50;99.90
20512;DHT22;10414;52.074;5.126;2023-03-22T15:48:48;12.40;99.90
20512;DHT22;10414;52.074;5.126;2023-03-22T15:51:18;12.40;99.90
20512;DHT22;10414;52.074;5.126;2023-03-22T15:53:47;12.30;99.90
20512;DHT22;10414;52.074;5.126;2023-03-22T15:56:25;12.40;99.90
20512;DHT22;10414;52.074;5.126;2023-03-22T15:58:54;12.10;99.90